Flight Track Log - Related Links

Times and Time Zones

All times are in EDT time to prevent confusion due to time zone crossing. See the UPS1804 flight status page for this flight to view local times or setup timezone preferences in your user account.

Time Position Orientation Groundspeed Altitude Reporting Facility
EDT Latitude Longitude Course Direction KTS MPH feet Rate Location/Type
Wed 08:20:29 PM 61.1770 -150.0020 334° Northwest 110 127  Level FlightAware ADS-B
Wed 08:20:55 PM 61.1940 -150.0120 344° North 150 173 800 2,118 Climbing FlightAware ADS-B
Wed 08:21:03 PM 61.1980 -150.0170 329° Northwest 151 174 1,200 2,800 Climbing FlightAware ADS-B
Wed 08:21:25 PM 61.2110 -150.0390 321° Northwest 174 200 2,200 2,471 Climbing FlightAware ADS-B
Wed 08:21:37 PM 61.2190 -150.0520 322° Northwest 195 224 2,600 2,333 Climbing FlightAware ADS-B
Wed 08:22:01 PM 61.2380 -150.0820 323° Northwest 228 262 3,600 2,727 Climbing FlightAware ADS-B
Wed 08:22:21 PM 61.2570 -150.1090 326° Northwest 257 296 4,600 3,316 Climbing FlightAware ADS-B
Wed 08:22:39 PM 61.2740 -150.1340 325° Northwest 264 304 5,700 3,750 Climbing FlightAware ADS-B
Wed 08:23:01 PM 61.2960 -150.1670 324° Northwest 273 314 7,100 3,857 Climbing FlightAware ADS-B
Wed 08:23:21 PM 61.3170 -150.2010 322° Northwest 281 323 8,400 3,857 Climbing FlightAware ADS-B
Wed 08:23:29 PM 61.3230 -150.2170 308° West 284 327 8,900 3,750 Climbing FlightAware ADS-B
Wed 08:23:37 PM 61.3280 -150.2380 296° West 284 327 9,400 3,500 Climbing FlightAware ADS-B
Wed 08:24:05 PM 61.3350 -150.3140 281° West 302 348 11,000 3,143 Climbing FlightAware ADS-B
Wed 08:24:19 PM 61.3330 -150.3550 264° West 321 369 11,600 2,400 Climbing FlightAware ADS-B
Wed 08:24:35 PM 61.3240 -150.4030 249° West 346 398 12,200 2,400 Climbing FlightAware ADS-B
Wed 08:24:49 PM 61.3100 -150.4400 232° Southwest 368 423 12,800 3,000 Climbing FlightAware ADS-B
Wed 08:25:01 PM 61.2950 -150.4670 221° Southwest 378 435 13,500 4,091 Climbing FlightAware ADS-B
Wed 08:25:33 PM 61.2430 -150.5210 207° Southwest 395 455 15,800 4,406 Climbing FlightAware ADS-B
Wed 08:26:05 PM 61.1880 -150.5670 202° Southwest 409 471 18,200 3,000 Climbing FlightAware ADS-B
Wed 08:26:47 PM 61.1080 -150.5690 181° South 427 491 19,500 1,923 Climbing FlightAware ADS-B
Wed 08:27:23 PM 61.0440 -150.5060 155° Southeast 433 498 20,700 2,571 Climbing FlightAware ADS-B
Wed 08:27:43 PM 61.0160 -150.4450 133° Southeast 444 511 21,900 3,059 Climbing FlightAware ADS-B
Wed 08:28:14 PM 60.9880 -150.3360 118° Southeast 460 529 23,300 2,912 Climbing FlightAware ADS-B
Wed 08:28:51 PM 60.9500 -150.1840 117° Southeast 481 554 25,200 2,959 Climbing FlightAware ADS-B
Wed 08:29:27 PM 60.9130 -150.0310 116° Southeast 496 571 26,900 2,696 Climbing FlightAware ADS-B
Wed 08:30:00 PM 60.8800 -149.8980 117° Southeast 507 583 28,300 3,000 Climbing FlightAware ADS-B
Wed 08:30:33 PM 60.8420 -149.7490 118° Southeast 508 585 30,200 3,211 Climbing FlightAware ADS-B
Wed 08:31:11 PM 60.8010 -149.5890 118° Southeast 508 585 32,100 2,919 Climbing FlightAware ADS-B
Wed 08:31:47 PM 60.7630 -149.4400 118° Southeast 504 580 33,800 2,571 Climbing FlightAware ADS-B
Wed 08:32:21 PM 60.7250 -149.2910 117° Southeast 507 583 35,100 2,400 Climbing FlightAware ADS-B
Wed 08:32:57 PM 60.6850 -149.1390 118° Southeast 505 581 36,600 2,167 Climbing FlightAware ADS-B
Wed 08:33:33 PM 60.6470 -148.9930 118° Southeast 504 580 37,700 1,800 Climbing FlightAware ADS-B
Wed 08:34:07 PM 60.6090 -148.8480 118° Southeast 502 578 38,700 1,091 Climbing FlightAware ADS-B
Wed 08:34:39 PM 60.5740 -148.7140 118° Southeast 504 580 38,900 174 Climbing FlightAware ADS-B
Wed 08:35:16 PM 60.5350 -148.5650 118° Southeast 502 578 38,900  Level FlightAware ADS-B
Wed 08:35:53 PM 60.4930 -148.4090 119° Southeast 501 577 38,900  Level FlightAware ADS-B
Wed 08:36:25 PM 60.4580 -148.2780 118° Southeast 502 578 38,900 86 Level FlightAware ADS-B
Wed 08:37:03 PM 60.4150 -148.1210 119° Southeast 502 578 39,000 86 Climbing FlightAware ADS-B
Wed 08:37:35 PM 60.3800 -147.9920 119° Southeast 501 577 39,000  Level FlightAware ADS-B
Wed 08:38:17 PM 60.3320 -147.8180 119° Southeast 502 578 39,000  Level FlightAware ADS-B
Wed 08:38:53 PM 60.2910 -147.6710 119° Southeast 501 577 39,000  Level FlightAware ADS-B
Wed 08:39:32 PM 60.2540 -147.5350 119° Southeast 501 577 39,000  Level FlightAware ADS-B
Wed 08:40:11 PM 60.2030 -147.3550 120° Southeast 503 579 39,000  Level FlightAware ADS-B
Wed 08:40:43 PM 60.1670 -147.2270 119° Southeast 502 578 39,000  Level FlightAware ADS-B
Wed 08:41:19 PM 60.1260 -147.0820 120° Southeast 501 577 39,000  Level FlightAware ADS-B
Wed 08:42:05 PM 60.0790 -146.9110 119° Southeast 502 578 39,000  Level FlightAware ADS-B
Wed 08:42:41 PM 60.0440 -146.7870 119° Southeast 502 578 39,000  Level FlightAware ADS-B
Wed 08:43:17 PM 60.0100 -146.6620 119° Southeast 502 578 39,000  Level FlightAware ADS-B
Wed 08:43:53 PM 59.9750 -146.5380 119° Southeast 502 578 39,000  Level FlightAware ADS-B
Wed 08:44:29 PM 59.9410 -146.4140 119° Southeast 502 578 39,000  Level FlightAware ADS-B
Wed 08:45:05 PM 59.9060 -146.2900 119° Southeast 502 578 39,000  Level FlightAware ADS-B
Wed 08:45:41 PM 59.8720 -146.1660 119° Southeast 502 578 39,000  Level FlightAware ADS-B
Wed 08:46:18 PM 59.8360 -146.0390 119° Southeast 502 578 39,000  Level FlightAware ADS-B
Wed 08:46:54 PM 59.8020 -145.9150 119° Southeast 502 578 39,000  Level FlightAware ADS-B
Wed 08:47:30 PM 59.7670 -145.7920 119° Southeast 502 578 39,000  Level FlightAware ADS-B
Wed 08:48:01 PM 59.6500 -145.4833 116° Southeast 500 575 39,000  Level Anchorage Center
Wed 08:48:07 PM 59.7320 -145.6650 119° Southeast 502 578 39,000  Level FlightAware ADS-B
Wed 08:48:43 PM 59.6970 -145.5420 119° Southeast 502 578 39,000  Level FlightAware ADS-B
Wed 08:49:02 PM 59.5833 -145.2500 119° Southeast 500 575 39,000  Level Anchorage Center
Wed 08:49:19 PM 59.6630 -145.4190 119° Southeast 502 578 39,000  Level FlightAware ADS-B
Wed 08:49:55 PM 59.6290 -145.2960 119° Southeast 502 578 39,000  Level FlightAware ADS-B
Wed 08:50:02 PM 59.5000 -145.0167 125° Southeast 500 575 39,000  Level Anchorage Center
Wed 08:50:31 PM 59.5940 -145.1730 119° Southeast 502 578 39,000  Level FlightAware ADS-B
Wed 08:51:17 PM 59.5500 -145.0160 119° Southeast 502 578 39,000  Level FlightAware ADS-B
Wed 08:52:02 PM 59.3833 -144.5833 118° Southeast 500 575 39,000  Level Anchorage Center
Wed 08:53:00 PM 59.4426 -144.6796 116° Southeast  Level Estimated
Wed 08:53:02 PM 59.3000 -144.3500 125° Southeast 490 564 39,000  Level Anchorage Center
Wed 08:54:02 PM 59.2333 -144.1333 121° Southeast 500 575 39,000  Level Anchorage Center
Wed 08:55:02 PM 59.1500 -143.9000 125° Southeast 500 575 39,000  Level Anchorage Center
Wed 08:56:02 PM 59.0833 -143.6667 119° Southeast 490 564 39,000  Level Anchorage Center
Wed 08:57:02 PM 59.0000 -143.4333 125° Southeast 490 564 39,000  Level Anchorage Center
Wed 08:58:02 PM 58.9333 -143.2167 121° Southeast 500 575 39,000  Level Anchorage Center
Wed 08:59:03 PM 58.8500 -142.9500 121° Southeast 500 575 39,000  Level Anchorage Center
Wed 09:01:03 PM 58.6833 -142.5167 126° Southeast 500 575 39,000  Level Anchorage Center
Wed 09:03:03 PM 58.5333 -142.0667 122° Southeast 490 564 39,000  Level Anchorage Center
Wed 09:04:03 PM 58.4500 -141.8500 126° Southeast 500 575 39,000  Level Anchorage Center
Wed 09:05:03 PM 58.3833 -141.6167 119° Southeast 500 575 39,000  Level Anchorage Center
Wed 09:06:03 PM 58.3000 -141.4000 126° Southeast 510 587 39,000  Level Anchorage Center
Wed 09:07:03 PM 58.2167 -141.1833 126° Southeast 500 575 39,000  Level Anchorage Center
Wed 09:08:03 PM 58.1333 -140.9667 126° Southeast 510 587 39,000  Level Anchorage Center
Wed 09:09:03 PM 58.0500 -140.7333 124° Southeast 510 587 39,000  Level Anchorage Center
Wed 09:10:03 PM 57.9833 -140.5167 120° Southeast 500 575 39,000  Level Anchorage Center
Wed 09:11:03 PM 57.9000 -140.3000 126° Southeast 500 575 39,000  Level Anchorage Center
Wed 09:12:04 PM 57.8167 -140.1000 128° Southeast 500 575 39,000  Level Anchorage Center
Wed 09:13:04 PM 57.7333 -139.8833 126° Southeast 500 575 39,000  Level Anchorage Center
Wed 09:14:04 PM 57.6500 -139.6667 126° Southeast 510 587 39,000  Level Anchorage Center
Wed 09:15:04 PM 57.5667 -139.4500 126° Southeast 500 575 39,000  Level Anchorage Center
Wed 09:16:04 PM 57.4833 -139.2500 128° Southeast 500 575 39,000  Level Anchorage Center
Wed 09:17:04 PM 57.4167 -139.0667 124° Southeast 490 564 39,000  Level Anchorage Center
Wed 09:18:04 PM 57.3333 -138.8500 125° Southeast 500 575 39,000  Level Anchorage Center
Wed 09:19:04 PM 57.2500 -138.6500 128° Southeast 490 564 39,000  Level Anchorage Center
Wed 09:20:04 PM 57.1667 -138.4500 127° Southeast 490 564 39,000  Level Anchorage Center
Wed 09:21:04 PM 57.0833 -138.2500 127° Southeast 480 552 39,000  Level Anchorage Center
Wed 09:22:04 PM 57.0000 -138.0500 127° Southeast 480 552 39,000  Level Anchorage Center
Wed 09:23:04 PM 56.9167 -137.8500 127° Southeast 490 564 39,000  Level Anchorage Center
Wed 09:24:05 PM 56.8333 -137.6500 127° Southeast 490 564 39,000  Level Anchorage Center
Wed 09:25:04 PM 56.7500 -137.4500 127° Southeast 490 564 39,000  Level Anchorage Center
Wed 09:26:05 PM 56.6667 -137.2667 130° Southeast 480 552 39,000  Level Anchorage Center
Wed 09:27:05 PM 56.5833 -137.0667 127° Southeast 480 552 39,000  Level Anchorage Center
Wed 09:28:05 PM 56.5000 -136.8833 129° Southeast 480 552 39,000  Level Anchorage Center
Wed 09:29:05 PM 56.4167 -136.6833 127° Southeast 480 552 39,000  Level Anchorage Center
Wed 09:30:05 PM 56.3500 -136.5000 123° Southeast 480 552 39,000  Level Anchorage Center
Wed 09:31:05 PM 56.2667 -136.3167 129° Southeast 480 552 39,000  Level Anchorage Center
Wed 09:32:05 PM 56.1667 -136.0833 128° Southeast 480 552 39,000  Level Anchorage Center
Wed 09:33:05 PM 56.0833 -135.9000 129° Southeast 480 552 39,000  Level Anchorage Center
Wed 09:34:05 PM 56.0000 -135.7167 129° Southeast 470 541 39,000  Level Anchorage Center
Wed 09:35:06 PM 55.9167 -135.5500 132° Southeast 470 541 39,000  Level Anchorage Center
Wed 09:36:05 PM 55.8333 -135.3667 129° Southeast 470 541 39,000  Level Anchorage Center
Wed 09:37:05 PM 55.7500 -135.1833 129° Southeast 470 541 39,000  Level Anchorage Center
Wed 09:38:06 PM 55.6667 -135.0167 132° Southeast 470 541 39,000  Level Anchorage Center
Wed 09:39:06 PM 55.5833 -134.8333 129° Southeast 470 541 39,000  Level Anchorage Center
Wed 09:40:06 PM 55.5000 -134.6500 129° Southeast 470 541 39,000  Level Anchorage Center
Wed 09:41:06 PM 55.4167 -134.4833 131° Southeast 470 541 39,000  Level Anchorage Center
Wed 09:42:06 PM 55.3333 -134.3000 129° Southeast 470 541 39,000  Level Anchorage Center
Wed 09:43:06 PM 55.2500 -134.1333 131° Southeast 460 529 39,000  Level Anchorage Center
Wed 09:44:06 PM 55.1667 -133.9667 131° Southeast 460 529 39,000  Level Anchorage Center
Wed 09:45:06 PM 55.0833 -133.7833 128° Southeast 460 529 39,000  Level Anchorage Center
Wed 09:46:06 PM 55.0000 -133.6167 131° Southeast 460 529 39,000  Level Anchorage Center
Wed 09:47:06 PM 54.9000 -133.4500 136° Southeast 470 541 39,000 -50 Level Anchorage Center
Wed 09:48:06 PM 54.8167 -133.2833 131° Southeast 460 529 38,900  Descending Anchorage Center
Wed 09:49:06 PM 54.7333 -133.1167 131° Southeast 460 529 39,000 50 Climbing Anchorage Center
Wed 09:50:07 PM 54.6500 -132.9500 131° Southeast 460 529 39,000 -50 Level Anchorage Center
Wed 09:51:07 PM 54.5667 -132.7833 131° Southeast 460 529 38,900  Descending Anchorage Center
Wed 09:52:04 PM 54.4833 -132.6833 145° Southeast 460 529 39,000 51 Climbing Vancouver Center
Wed 09:53:04 PM 54.4000 -132.5333 134° Southeast 460 529 39,000  Level Vancouver Center
Wed 09:54:04 PM 54.3167 -132.3667 131° Southeast 460 529 39,000  Level Vancouver Center
Wed 09:55:04 PM 54.2333 -132.2000 131° Southeast 460 529 39,000 -50 Level Vancouver Center
Wed 09:56:04 PM 54.1333 -132.0167 133° Southeast 460 529 38,900  Descending Vancouver Center
Wed 09:57:04 PM 54.0500 -131.8500 130° Southeast 460 529 39,000  Climbing Vancouver Center
Wed 09:58:04 PM 53.9667 -131.7000 133° Southeast 460 529 38,900 -50 Descending Vancouver Center
Wed 09:59:04 PM 53.8833 -131.5333 130° Southeast 460 529 38,900  Level Vancouver Center
Wed 10:00:04 PM 53.8000 -131.3833 133° Southeast 460 529 38,900  Level Vancouver Center
Wed 10:01:04 PM 53.7000 -131.2167 135° Southeast 460 529 38,900  Level Vancouver Center
Wed 10:02:04 PM 53.6167 -131.0667 133° Southeast 460 529 38,900  Level Vancouver Center
Wed 10:03:04 PM 53.5333 -130.9167 133° Southeast 460 529 38,900  Level Vancouver Center
Wed 10:04:04 PM 53.4500 -130.7500 130° Southeast 460 529 38,900  Level Vancouver Center
Wed 10:05:04 PM 53.3500 -130.5667 132° Southeast 460 529 38,900  Level Vancouver Center
Wed 10:06:04 PM 53.2667 -130.4167 133° Southeast 460 529 38,900  Level Vancouver Center
Wed 10:07:04 PM 53.1667 -130.2667 138° Southeast 460 529 38,900  Level Vancouver Center
Wed 10:08:04 PM 53.1000 -130.1167 126° Southeast 460 529 38,900  Level Vancouver Center
Wed 10:09:04 PM 53.0000 -129.9667 138° Southeast 460 529 38,900 50 Level Vancouver Center
Wed 10:10:04 PM 52.9167 -129.8167 133° Southeast 460 529 39,000  Climbing Vancouver Center
Wed 10:11:04 PM 52.8167 -129.6500 135° Southeast 450 518 38,900  Descending Vancouver Center
Wed 10:12:04 PM 52.7500 -129.5167 130° Southeast 450 518 39,000  Climbing Vancouver Center
Wed 10:13:04 PM 52.6667 -129.3667 132° Southeast 450 518 38,900 -50 Descending Vancouver Center
Wed 10:14:04 PM 52.5667 -129.2167 138° Southeast 450 518 38,900  Level Vancouver Center
Wed 10:15:04 PM 52.4833 -129.0667 132° Southeast 450 518 38,900  Level Vancouver Center
Wed 10:16:04 PM 52.3833 -128.9167 137° Southeast 450 518 38,900  Level Vancouver Center
Wed 10:17:04 PM 52.2833 -128.7667 137° Southeast 450 518 38,900  Level Vancouver Center
Wed 10:18:04 PM 52.2167 -128.6167 126° Southeast 450 518 38,900  Level Vancouver Center
Wed 10:19:04 PM 52.1167 -128.4833 141° Southeast 450 518 38,900 50 Level Vancouver Center
Wed 10:20:04 PM 52.0333 -128.3333 132° Southeast 460 529 39,000  Climbing Vancouver Center
Wed 10:21:04 PM 51.9500 -128.1833 132° Southeast 460 529 38,900 -50 Descending Vancouver Center
Wed 10:22:04 PM 51.8500 -128.0500 141° Southeast 460 529 38,900  Level Vancouver Center
Wed 10:23:04 PM 51.7500 -127.9000 137° Southeast 460 529 38,900  Level Vancouver Center
Wed 10:24:04 PM 51.6667 -127.7500 132° Southeast 460 529 38,900 50 Level Vancouver Center
Wed 10:25:04 PM 51.5833 -127.6167 135° Southeast 460 529 39,000 14 Climbing Vancouver Center
Wed 10:31:14 PM 51.0280 -126.7310 135° Southeast 459 528 39,000  Level FlightAware ADS-B
Wed 10:31:44 PM 50.9770 -126.6530 136° Southeast 459 528 39,000  Level FlightAware ADS-B
Wed 10:32:24 PM 50.9160 -126.5610 136° Southeast 459 528 39,000  Level FlightAware ADS-B
Wed 10:32:59 PM 50.8650 -126.4860 137° Southeast 458 527 39,000  Level FlightAware ADS-B
Wed 10:33:40 PM 50.8030 -126.3920 136° Southeast 459 528 39,000  Level FlightAware ADS-B
Wed 10:34:14 PM 50.7540 -126.3200 137° Southeast 458 527 39,000  Level FlightAware ADS-B
Wed 10:34:49 PM 50.6930 -126.2300 137° Southeast 459 528 39,000  Level FlightAware ADS-B
Wed 10:35:25 PM 50.6370 -126.1480 137° Southeast 456 525 39,000  Level FlightAware ADS-B
Wed 10:35:55 PM 50.5920 -126.0810 137° Southeast 456 525 39,000  Level FlightAware ADS-B
Wed 10:36:35 PM 50.5310 -125.9910 137° Southeast 457 526 39,000  Level FlightAware ADS-B
Wed 10:37:11 PM 50.4740 -125.9080 137° Southeast 459 528 39,000  Level FlightAware ADS-B
Wed 10:37:46 PM 50.4200 -125.8300 137° Southeast 459 528 39,000  Level FlightAware ADS-B
Wed 10:38:23 PM 50.3630 -125.7460 137° Southeast 459 528 39,000  Level FlightAware ADS-B
Wed 10:38:55 PM 50.3120 -125.6730 138° Southeast 461 531 39,000  Level FlightAware ADS-B
Wed 10:39:31 PM 50.2560 -125.5910 137° Southeast 462 532 39,000  Level FlightAware ADS-B
Wed 10:39:57 PM 50.2150 -125.5330 138° Southeast 462 532 39,000  Level FlightAware ADS-B
Wed 10:40:35 PM 50.1560 -125.4480 137° Southeast 464 534 39,000  Level FlightAware ADS-B
Wed 10:41:13 PM 50.0950 -125.3620 138° Southeast 466 536 39,000  Level FlightAware ADS-B
Wed 10:41:45 PM 50.0440 -125.2880 137° Southeast 467 537 39,000  Level FlightAware ADS-B
Wed 10:42:19 PM 50.0120 -125.2430 138° Southeast 468 539 39,000  Level FlightAware ADS-B
Wed 10:42:55 PM 49.9330 -125.1310 138° Southeast 468 539 39,000  Level FlightAware ADS-B
Wed 10:43:27 PM 49.8810 -125.0570 137° Southeast 469 540 39,000  Level FlightAware ADS-B
Wed 10:44:03 PM 49.8240 -124.9770 138° Southeast 467 537 39,000  Level FlightAware ADS-B
Wed 10:44:39 PM 49.7670 -124.8970 138° Southeast 466 536 39,000  Level FlightAware ADS-B
Wed 10:45:09 PM 49.7180 -124.8290 138° Southeast 465 535 39,000  Level FlightAware ADS-B
Wed 10:45:47 PM 49.6580 -124.7460 138° Southeast 465 535 39,000  Level FlightAware ADS-B
Wed 10:46:25 PM 49.5970 -124.6610 138° Southeast 465 535 39,000  Level FlightAware ADS-B
Wed 10:46:57 PM 49.5460 -124.5900 138° Southeast 465 535 39,000  Level FlightAware ADS-B
Wed 10:47:33 PM 49.4870 -124.5090 138° Southeast 465 535 39,000  Level FlightAware ADS-B
Wed 10:48:09 PM 49.4320 -124.4330 138° Southeast 464 534 39,000  Level FlightAware ADS-B
Wed 10:48:17 PM 49.4176 -124.4130 138° Southeast 465 535 39,000  Level FlightAware ADS-B
Wed 10:48:47 PM 49.3690 -124.3470 139° Southeast 465 535 39,000  Level FlightAware ADS-B
Wed 10:49:18 PM 49.3205 -124.2810 138° Southeast 465 535 39,000  Level FlightAware ADS-B
Wed 10:49:48 PM 49.2721 -124.2140 138° Southeast 465 535 39,000  Level FlightAware ADS-B
Wed 10:50:18 PM 49.2238 -124.1490 139° Southeast 465 535 39,000  Level FlightAware ADS-B
Wed 10:50:48 PM 49.1755 -124.0830 138° Southeast 466 536 39,000  Level FlightAware ADS-B
Wed 10:51:18 PM 49.1270 -124.0180 139° Southeast 466 536 39,000 -67 Level FlightAware ADS-B
Wed 10:52:18 PM 49.0307 -123.8880 138° Southeast 467 537 38,900 -533 Descending FlightAware ADS-B
Wed 10:52:48 PM 48.9829 -123.8240 139° Southeast 454 522 38,200 -2,100 Descending FlightAware ADS-B
Wed 10:53:18 PM 48.9352 -123.7600 139° Southeast 452 520 36,800 -2,893 Descending FlightAware ADS-B
Wed 10:53:44 PM 48.8958 -123.7080 139° Southeast 450 518 35,500 -2,571 Descending FlightAware ADS-B
Wed 10:54:14 PM 48.8499 -123.6470 139° Southeast 434 499 34,400 -2,400 Descending FlightAware ADS-B
Wed 10:54:44 PM 48.8050 -123.5880 139° Southeast 422 486 33,100 -3,500 Descending FlightAware ADS-B
Wed 10:55:14 PM 48.7607 -123.5290 139° Southeast 432 497 30,900 -4,286 Descending FlightAware ADS-B
Wed 10:55:26 PM 48.7423 -123.5060 140° Southeast 434 499 30,100 -3,455 Descending FlightAware ADS-B
Wed 10:55:47 PM 48.7072 -123.4680 144° Southeast 430 495 29,000 -3,000 Descending FlightAware ADS-B
Wed 10:56:18 PM 48.6562 -123.4180 147° Southeast 427 491 27,500 -2,857 Descending FlightAware ADS-B
Wed 10:56:50 PM 48.6036 -123.3680 148° Southeast 424 488 26,000 -2,182 Descending FlightAware ADS-B
Wed 10:57:24 PM 48.5473 -123.3160 149° Southeast 412 474 25,100 -938 Descending FlightAware ADS-B
Wed 10:57:54 PM 48.4982 -123.2710 149° Southeast 411 473 25,000 -700 Descending FlightAware ADS-B
Wed 10:58:24 PM 48.4493 -123.2260 149° Southeast 406 467 24,400 -2,361 Descending FlightAware ADS-B
Wed 10:58:55 PM 48.4020 -123.1820 148° Southeast 396 456 22,600 -3,934 Descending FlightAware ADS-B
Wed 10:59:25 PM 48.3554 -123.1390 148° Southeast 380 437 20,400 -4,600 Descending FlightAware ADS-B
Wed 10:59:55 PM 48.3104 -123.0970 148° Southeast 377 434 18,000 -4,230 Descending FlightAware ADS-B
Wed 11:00:26 PM 48.2654 -123.0560 149° Southeast 382 440 16,100 -3,148 Descending FlightAware ADS-B
Wed 11:00:56 PM 48.2198 -123.0140 148° Southeast 382 440 14,800 -2,654 Descending FlightAware ADS-B
Wed 11:01:18 PM 48.1863 -122.9840 149° Southeast 380 437 13,800 -2,654 Descending FlightAware ADS-B
Wed 11:01:48 PM 48.1417 -122.9430 148° Southeast 374 430 12,500 -2,400 Descending FlightAware ADS-B
Wed 11:02:18 PM 48.0982 -122.9030 148° Southeast 351 404 11,400 -1,400 Descending FlightAware ADS-B
Wed 11:02:48 PM 48.0591 -122.8680 149° Southeast 306 352 11,100 -689 Descending FlightAware ADS-B
Wed 11:03:19 PM 48.0240 -122.8360 149° Southeast 281 323 10,700 -1,200 Descending FlightAware ADS-B
Wed 11:03:43 PM 47.9973 -122.8120 149° Southeast 279 321 10,000 -1,692 Descending FlightAware ADS-B
Wed 11:03:58 PM 47.9807 -122.7970 149° Southeast 278 320 9,600 -1,548 Descending FlightAware ADS-B
Wed 11:04:14 PM 47.9638 -122.7820 149° Southeast 276 318 9,200 -1,548 Descending FlightAware ADS-B
Wed 11:04:29 PM 47.9477 -122.7670 148° Southeast 275 316 8,800 -1,400 Descending FlightAware ADS-B
Wed 11:04:44 PM 47.9312 -122.7520 149° Southeast 275 316 8,500 -1,500 Descending FlightAware ADS-B
Wed 11:04:57 PM 47.9171 -122.7390 148° Southeast 274 315 8,100 -1,500 Descending FlightAware ADS-B
Wed 11:05:12 PM 47.9006 -122.7250 150° Southeast 272 313 7,800 -1,333 Descending FlightAware ADS-B
Wed 11:05:15 PM 47.8970 -122.7210 143° Southeast 271 312 7,700 -2,000 Descending FlightAware ADS-B
Wed 11:05:18 PM 47.8939 -122.7180 147° Southeast 271 312 7,600 -1,714 Descending FlightAware ADS-B
Wed 11:05:22 PM 47.8906 -122.7140 141° Southeast 271 312 7,500 -1,714 Descending FlightAware ADS-B
Wed 11:05:25 PM 47.8877 -122.7090 131° Southeast 271 312 7,400 -1,333 Descending FlightAware ADS-B
Wed 11:05:40 PM 47.8762 -122.6870 128° Southeast 269 310 7,100 -1,355 Descending FlightAware ADS-B
Wed 11:05:56 PM 47.8642 -122.6650 129° Southeast 268 308 6,700 -1,355 Descending FlightAware ADS-B
Wed 11:06:11 PM 47.8524 -122.6430 129° Southeast 267 307 6,400 -1,355 Descending FlightAware ADS-B
Wed 11:06:27 PM 47.8399 -122.6200 129° Southeast 265 305 6,000 -1,588 Descending FlightAware ADS-B
Wed 11:06:45 PM 47.8266 -122.5960 130° Southeast 263 303 5,500 -1,429 Descending FlightAware ADS-B
Wed 11:07:09 PM 47.8082 -122.5620 129° Southeast 262 302 5,000 -1,385 Descending FlightAware ADS-B
Wed 11:07:24 PM 47.7968 -122.5410 129° Southeast 259 298 4,600 -1,333 Descending FlightAware ADS-B
Wed 11:07:36 PM 47.7870 -122.5240 131° Southeast 256 295 4,400 -750 Descending FlightAware ADS-B
Wed 11:07:40 PM 47.7839 -122.5200 139° Southeast 254 292 4,400 -667 Level FlightAware ADS-B
Wed 11:07:45 PM 47.7788 -122.5140 142° Southeast 252 290 4,300 -1,333 Descending FlightAware ADS-B
Wed 11:07:49 PM 47.7756 -122.5110 148° Southeast 250 288 4,200 -706 Descending FlightAware ADS-B
Wed 11:08:02 PM 47.7630 -122.5000 150° Southeast 242 278 4,100 -462 Descending FlightAware ADS-B
Wed 11:08:15 PM 47.7505 -122.4900 152° Southeast 236 272 4,000 -643 Descending FlightAware ADS-B
Wed 11:08:30 PM 47.7363 -122.4770 148° Southeast 228 262 3,800 -828 Descending FlightAware ADS-B
Wed 11:08:44 PM 47.7239 -122.4670 152° Southeast 220 253 3,600 -828 Descending FlightAware ADS-B
Wed 11:08:59 PM 47.7106 -122.4560 151° Southeast 213 245 3,400 -400 Descending FlightAware ADS-B
Wed 11:09:14 PM 47.6983 -122.4450 149° Southeast 198 228 3,400 -375 Level FlightAware ADS-B
Wed 11:09:31 PM 47.6858 -122.4350 152° Southeast 182 209 3,200 -960 Descending FlightAware ADS-B
Wed 11:09:39 PM 47.6799 -122.4300 150° Southeast 183 211 3,000 -1,043 Descending FlightAware ADS-B
Wed 11:09:54 PM 47.6690 -122.4210 151° Southeast 180 207 2,800 -774 Descending FlightAware ADS-B
Wed 11:10:10 PM 47.6579 -122.4110 149° Southeast 175 201 2,600 -968 Descending FlightAware ADS-B
Wed 11:10:25 PM 47.6474 -122.4020 150° Southeast 172 198 2,300 -1,071 Descending FlightAware ADS-B
Wed 11:10:38 PM 47.6379 -122.3930 147° Southeast 173 199 2,100 -783 Descending FlightAware ADS-B
Wed 11:10:48 PM 47.6311 -122.3880 154° Southeast 169 194 2,000 -720 Descending FlightAware ADS-B
Wed 11:11:03 PM 47.6215 -122.3800 151° Southeast 160 184 1,800 -938 Descending FlightAware ADS-B
Wed 11:11:20 PM 47.6107 -122.3710 151° Southeast 147 169 1,500 -750 Descending FlightAware ADS-B
Wed 11:11:27 PM 47.6071 -122.3680 151° Southeast 143 165 1,500 -522 Level FlightAware ADS-B
Wed 11:11:43 PM 47.5980 -122.3600 149° Southeast 140 161 1,300 -692 Descending FlightAware ADS-B
Wed 11:12:19 PM 47.6440 -122.3990 330° Northwest 172 198 900 -375 Descending FlightAware ADS-B
Wed 11:12:47 PM 47.6280 -122.3840 148° Southeast 172 198 900 -505 Level FlightAware ADS-B
Wed 11:13:54 PM 47.5353 -122.3078 148° Southeast 121 139 100 -716 Descending Seattle Center
Wed 11:15:00 PM 47.5300 -122.3020 132° Southeast  Level Estimated
Wed 11:22:00 PM 47.5300 -122.3020 132° Southeast  Level Estimated

Login

Don't have an account? Register now (free) for customized features, flight alerts, and more!